createdAt,value
2019-02-20T00:00:45.588Z,6.30
2019-02-20T00:01:46.703Z,5.60
2019-02-20T00:02:47.837Z,6.30
2019-02-20T00:03:48.952Z,5.33
2019-02-20T00:04:50.070Z,6.08
2019-02-20T00:05:51.443Z,5.65
2019-02-20T00:06:52.635Z,6.35
2019-02-20T00:07:53.749Z,5.85
2019-02-20T00:08:54.867Z,6.60
2019-02-20T00:09:55.977Z,5.42
2019-02-20T00:10:57.106Z,7.30
2019-02-20T00:11:58.224Z,6.12
2019-02-20T00:12:59.349Z,5.55
2019-02-20T00:14:00.472Z,7.58
2019-02-20T00:15:01.591Z,5.62
2019-02-20T00:16:02.704Z,6.20
2019-02-20T00:17:03.823Z,6.45
2019-02-20T00:18:04.943Z,6.35
2019-02-20T00:19:06.062Z,6.78
2019-02-20T00:20:07.240Z,6.25
2019-02-20T00:21:08.433Z,6.60
2019-02-20T00:22:11.448Z,6.37
2019-02-20T00:23:12.574Z,6.85
2019-02-20T00:24:13.700Z,6.62
2019-02-20T00:25:14.808Z,6.62
2019-02-20T00:26:15.932Z,6.15
2019-02-20T00:27:17.049Z,7.35
2019-02-20T00:28:18.168Z,6.92
2019-02-20T00:29:19.285Z,7.05
2019-02-20T00:30:20.432Z,6.87
2019-02-20T00:31:21.557Z,7.25
2019-02-20T00:32:22.669Z,7.47
2019-02-20T00:33:23.781Z,6.85
2019-02-20T00:34:24.898Z,7.50
2019-02-20T00:35:26.024Z,7.10
2019-02-20T00:36:27.141Z,7.10
2019-02-20T00:37:28.258Z,6.95
2019-02-20T00:38:30.265Z,7.67
2019-02-20T00:39:31.384Z,7.10
2019-02-20T00:40:32.744Z,7.80
2019-02-20T00:41:33.881Z,7.28
2019-02-20T00:42:35.005Z,7.92
2019-02-20T00:43:36.716Z,7.47
2019-02-20T00:44:54.832Z,6.92
2019-02-20T00:46:09.986Z,7.50
2019-02-20T00:47:18.778Z,6.92
2019-02-20T00:48:21.800Z,6.92
2019-02-20T00:49:24.829Z,7.35
2019-02-20T00:50:27.838Z,6.97
2019-02-20T00:51:33.480Z,6.80
2019-02-20T00:52:49.642Z,7.60
2019-02-20T00:53:47.014Z,7.62
2019-02-20T00:54:48.129Z,8.38
2019-02-20T00:55:49.333Z,7.37
2019-02-20T00:56:50.524Z,7.10
2019-02-20T00:57:51.985Z,6.75
2019-02-20T00:58:53.186Z,7.33
2019-02-20T00:59:54.313Z,7.72
2019-02-20T01:00:55.426Z,8.40
2019-02-20T01:01:56.559Z,8.28
2019-02-20T01:02:57.667Z,7.42
2019-02-20T01:03:58.882Z,7.10
2019-02-20T01:04:59.996Z,7.42
2019-02-20T01:06:01.106Z,7.53
2019-02-20T01:07:02.324Z,8.05
2019-02-20T01:08:03.545Z,8.13
2019-02-20T01:09:05.261Z,7.37
2019-02-20T01:10:06.975Z,7.40
2019-02-20T01:11:08.098Z,7.70
2019-02-20T01:12:09.311Z,7.40
2019-02-20T01:13:10.712Z,7.15
2019-02-20T01:14:12.016Z,8.03
2019-02-20T01:15:13.228Z,7.72
2019-02-20T01:16:14.350Z,8.50
2019-02-20T01:17:15.756Z,7.20
2019-02-20T01:18:17.192Z,7.03
2019-02-20T01:19:18.555Z,7.87
2019-02-20T01:20:19.672Z,7.42
2019-02-20T01:21:20.785Z,7.03
2019-02-20T01:22:21.921Z,7.53
2019-02-20T01:23:23.029Z,8.10
2019-02-20T01:24:24.136Z,7.40
2019-02-20T01:25:25.248Z,8.00
2019-02-20T01:26:26.384Z,7.65
2019-02-20T01:27:27.497Z,8.28
2019-02-20T01:28:28.612Z,8.03
2019-02-20T01:29:29.737Z,8.48
2019-02-20T01:30:30.855Z,7.85
2019-02-20T01:31:31.973Z,7.65
2019-02-20T01:32:33.489Z,8.13
2019-02-20T01:33:34.836Z,8.43
2019-02-20T01:34:35.949Z,7.70
2019-02-20T01:35:37.065Z,8.03
2019-02-20T01:36:38.427Z,7.87
2019-02-20T01:37:39.533Z,8.18
2019-02-20T01:38:40.650Z,7.62
2019-02-20T01:39:42.021Z,8.65
2019-02-20T01:40:43.166Z,7.15
2019-02-20T01:41:44.279Z,8.55
2019-02-20T01:42:45.721Z,8.18
2019-02-20T01:43:47.161Z,7.25
2019-02-20T01:44:48.280Z,7.92
2019-02-20T01:45:49.399Z,8.25
2019-02-20T01:46:50.528Z,7.60
2019-02-20T01:47:51.633Z,7.90
2019-02-20T01:48:53.500Z,7.55
2019-02-20T01:49:54.608Z,7.30
2019-02-20T01:50:55.812Z,8.05
2019-02-20T01:51:56.946Z,7.12
2019-02-20T01:52:58.062Z,7.55
2019-02-20T01:53:59.180Z,7.65
2019-02-20T01:55:00.544Z,6.65
2019-02-20T01:56:01.665Z,8.13
2019-02-20T01:57:02.918Z,6.97
2019-02-20T01:58:04.038Z,6.83
2019-02-20T01:59:05.149Z,7.20
2019-02-20T02:00:09.561Z,7.15
2019-02-20T02:01:10.918Z,7.30
2019-02-20T02:02:12.051Z,6.50
2019-02-20T02:03:13.170Z,6.47
2019-02-20T02:04:14.541Z,7.35
2019-02-20T02:05:16.046Z,7.20
2019-02-20T02:06:17.277Z,6.87
2019-02-20T02:07:18.404Z,7.97
2019-02-20T02:08:19.517Z,7.33
2019-02-20T02:09:20.629Z,7.25
2019-02-20T02:10:21.757Z,6.25
2019-02-20T02:11:22.866Z,7.40
2019-02-20T02:12:44.113Z,7.67
2019-02-20T02:13:45.234Z,7.55
2019-02-20T02:14:46.350Z,7.40
2019-02-20T02:15:47.776Z,7.12
2019-02-20T02:16:48.889Z,7.53
2019-02-20T02:17:50.008Z,6.97
2019-02-20T02:18:51.129Z,7.47
2019-02-20T02:19:52.520Z,7.70
2019-02-20T02:20:53.955Z,7.05
2019-02-20T02:21:55.092Z,8.30
2019-02-20T02:22:56.225Z,8.70
2019-02-20T02:23:57.769Z,8.33
2019-02-20T02:24:58.885Z,8.35
2019-02-20T02:26:00.001Z,8.80
2019-02-20T02:27:01.112Z,8.35
2019-02-20T02:28:02.243Z,8.40
2019-02-20T02:29:03.364Z,10.18
2019-02-20T02:30:08.562Z,8.65
2019-02-20T02:31:09.996Z,8.48
2019-02-20T02:32:11.437Z,8.78
2019-02-20T02:33:12.820Z,8.33
2019-02-20T02:34:13.928Z,8.38
2019-02-20T02:35:18.316Z,7.83
2019-02-20T02:36:19.442Z,8.10
2019-02-20T02:37:20.894Z,8.53
2019-02-20T02:38:22.017Z,7.40
2019-02-20T02:39:23.128Z,7.37
2019-02-20T02:40:24.246Z,7.05
2019-02-20T02:41:25.624Z,7.97
2019-02-20T02:42:27.242Z,7.97
2019-02-20T02:43:28.357Z,7.87
2019-02-20T02:44:29.776Z,8.10
2019-02-20T02:45:31.380Z,7.87
2019-02-20T02:46:32.824Z,8.73
2019-02-20T02:47:34.373Z,7.75
2019-02-20T02:48:35.511Z,8.20
2019-02-20T02:49:36.644Z,7.78
2019-02-20T02:50:38.114Z,7.83
2019-02-20T02:51:39.234Z,7.85
2019-02-20T02:52:40.645Z,8.43
2019-02-20T02:53:41.808Z,8.25
2019-02-20T02:54:43.231Z,8.90
2019-02-20T02:55:44.348Z,8.13
2019-02-20T02:56:45.805Z,8.30
2019-02-20T02:57:47.245Z,8.55
2019-02-20T02:58:48.356Z,8.68
2019-02-20T02:59:49.469Z,7.87
2019-02-20T03:00:50.584Z,8.50
2019-02-20T03:01:51.691Z,8.23
2019-02-20T03:02:53.113Z,8.38
2019-02-20T03:03:55.121Z,7.95
2019-02-20T03:04:56.316Z,8.20
2019-02-20T03:05:57.436Z,7.80
2019-02-20T03:06:58.864Z,8.18
2019-02-20T03:07:59.998Z,7.95
2019-02-20T03:09:01.409Z,7.55
2019-02-20T03:10:04.425Z,8.43
2019-02-20T03:11:05.632Z,8.03
2019-02-20T03:12:07.017Z,7.33
2019-02-20T03:13:08.435Z,9.00
2019-02-20T03:14:09.557Z,7.35
2019-02-20T03:15:10.763Z,8.53
2019-02-20T03:16:11.873Z,8.23
2019-02-20T03:17:12.984Z,8.23
2019-02-20T03:18:14.118Z,8.18
2019-02-20T03:19:15.228Z,7.37
2019-02-20T03:20:16.337Z,8.85
2019-02-20T03:21:17.453Z,9.10
2019-02-20T03:22:18.552Z,10.32
2019-02-20T03:23:19.681Z,10.72
2019-02-20T03:24:21.097Z,10.35
2019-02-20T03:25:22.264Z,10.50
2019-02-20T03:26:23.440Z,10.05
2019-02-20T03:27:24.907Z,10.28
2019-02-20T03:28:26.340Z,10.30
2019-02-20T03:29:27.466Z,10.23
2019-02-20T03:30:28.605Z,10.95
2019-02-20T03:31:29.942Z,10.28
2019-02-20T03:32:31.393Z,10.80
2019-02-20T03:33:32.933Z,11.18
2019-02-20T03:34:34.545Z,11.15
2019-02-20T03:35:35.912Z,10.72
2019-02-20T03:36:37.020Z,10.95
2019-02-20T03:37:38.134Z,11.40
2019-02-20T03:38:39.262Z,12.18
2019-02-20T03:39:40.380Z,10.53
2019-02-20T03:40:41.484Z,10.00
2019-02-20T03:41:42.597Z,10.25
2019-02-20T03:42:43.713Z,9.55
2019-02-20T03:43:44.851Z,9.43
2019-02-20T03:44:45.962Z,8.88
2019-02-20T03:45:47.082Z,10.05
2019-02-20T03:46:48.193Z,8.98
2019-02-20T03:47:49.612Z,8.95
2019-02-20T03:48:50.746Z,8.40
2019-02-20T03:49:51.849Z,8.05
2019-02-20T03:50:52.956Z,8.60
2019-02-20T03:51:54.069Z,8.88
2019-02-20T03:52:55.498Z,8.88
2019-02-20T03:53:57.421Z,8.60
2019-02-20T03:54:58.596Z,8.23
2019-02-20T03:55:59.713Z,8.78
2019-02-20T03:57:01.124Z,9.28
2019-02-20T03:58:02.362Z,9.90
2019-02-20T03:59:04.056Z,9.50
2019-02-20T04:00:07.923Z,8.93
2019-02-20T04:01:09.031Z,9.15
2019-02-20T04:02:10.140Z,9.03
2019-02-20T04:03:11.528Z,9.43
2019-02-20T04:04:12.644Z,9.70
2019-02-20T04:05:14.004Z,9.70
2019-02-20T04:06:15.105Z,10.48
2019-02-20T04:07:16.212Z,10.03
2019-02-20T04:08:17.320Z,9.38
2019-02-20T04:09:18.697Z,9.60
2019-02-20T04:10:19.805Z,9.70
2019-02-20T04:11:21.166Z,9.90
2019-02-20T04:12:22.284Z,9.88
2019-02-20T04:13:23.400Z,9.70
2019-02-20T04:14:24.804Z,10.45
2019-02-20T04:15:25.922Z,9.58
2019-02-20T04:16:27.385Z,9.50
2019-02-20T04:17:28.495Z,10.53
2019-02-20T04:18:29.605Z,11.03
2019-02-20T04:19:30.723Z,10.43
2019-02-20T04:20:32.060Z,10.93
2019-02-20T04:21:33.442Z,10.58
2019-02-20T04:22:34.891Z,10.05
2019-02-20T04:23:36.005Z,10.20
2019-02-20T04:24:37.124Z,10.40
2019-02-20T04:25:38.228Z,10.45
2019-02-20T04:26:39.349Z,9.90
2019-02-20T04:27:40.467Z,9.95
2019-02-20T04:28:41.892Z,10.35
2019-02-20T04:29:43.022Z,9.85
2019-02-20T04:30:44.469Z,10.93
2019-02-20T04:31:45.913Z,11.10
2019-02-20T04:32:47.025Z,10.60
2019-02-20T04:33:48.131Z,11.65
2019-02-20T04:34:49.263Z,11.40
2019-02-20T04:35:50.647Z,11.38
2019-02-20T04:36:51.769Z,11.28
2019-02-20T04:37:53.426Z,10.38
2019-02-20T04:38:54.542Z,10.72
2019-02-20T04:39:55.665Z,11.05
2019-02-20T04:40:57.124Z,11.63
2019-02-20T04:41:58.242Z,12.33
2019-02-20T04:42:59.344Z,13.83
2019-02-20T04:44:00.449Z,12.13
2019-02-20T04:45:01.596Z,13.98
2019-02-20T04:46:02.913Z,13.45
2019-02-20T04:47:04.030Z,13.20
2019-02-20T04:48:05.398Z,13.48
2019-02-20T04:49:06.513Z,14.28
2019-02-20T04:50:07.940Z,14.43
2019-02-20T04:51:09.525Z,13.75
2019-02-20T04:52:10.630Z,15.60
2019-02-20T04:53:11.740Z,15.23
2019-02-20T04:54:13.820Z,15.85
2019-02-20T04:55:15.102Z,15.58
2019-02-20T04:56:16.219Z,15.60
2019-02-20T04:57:17.329Z,15.72
2019-02-20T04:58:20.041Z,15.30
2019-02-20T04:59:21.619Z,16.97
2019-02-20T05:00:22.741Z,16.07
2019-02-20T05:01:23.854Z,16.55
2019-02-20T05:02:24.967Z,14.75
2019-02-20T05:03:26.076Z,15.70
2019-02-20T05:04:27.185Z,15.72
2019-02-20T05:05:28.302Z,14.78
2019-02-20T05:06:29.410Z,16.30
2019-02-20T05:07:30.777Z,15.25
2019-02-20T05:08:31.886Z,15.63
2019-02-20T05:09:33.004Z,16.02
2019-02-20T05:10:34.125Z,16.25
2019-02-20T05:11:35.230Z,16.65
2019-02-20T05:12:36.361Z,15.53
2019-02-20T05:13:37.460Z,16.77
2019-02-20T05:14:38.579Z,16.35
2019-02-20T05:15:39.964Z,18.25
2019-02-20T05:16:41.165Z,16.85
2019-02-20T05:17:42.274Z,16.12
2019-02-20T05:18:43.409Z,17.07
2019-02-20T05:19:44.601Z,16.87
2019-02-20T05:20:45.732Z,17.90
2019-02-20T05:21:46.841Z,17.92
2019-02-20T05:22:47.957Z,18.55
2019-02-20T05:23:49.317Z,19.87
2019-02-20T05:24:50.438Z,19.50
2019-02-20T05:25:51.549Z,19.15
2019-02-20T05:26:52.920Z,19.70
2019-02-20T05:27:54.212Z,20.62
2019-02-20T05:28:55.446Z,18.92
2019-02-20T05:29:56.838Z,20.20
2019-02-20T05:30:57.959Z,20.17
2019-02-20T05:31:59.068Z,19.25
2019-02-20T05:33:00.544Z,19.42
2019-02-20T05:34:01.649Z,19.00
2019-02-20T05:35:03.299Z,20.08
2019-02-20T05:36:04.397Z,17.65
2019-02-20T05:37:05.503Z,19.27
2019-02-20T05:38:06.617Z,18.65
2019-02-20T05:39:07.725Z,19.02
2019-02-20T05:40:09.698Z,19.77
2019-02-20T05:41:11.111Z,19.95
2019-02-20T05:42:12.213Z,19.30
2019-02-20T05:43:13.622Z,18.25
2019-02-20T05:44:14.854Z,19.98
2019-02-20T05:45:16.050Z,18.92
2019-02-20T05:46:17.162Z,19.20
2019-02-20T05:47:18.349Z,19.65
2019-02-20T05:48:19.700Z,18.73
2019-02-20T05:49:20.827Z,20.00
2019-02-20T05:50:22.009Z,21.77
2019-02-20T05:51:23.136Z,21.73
2019-02-20T05:52:27.657Z,21.62
2019-02-20T05:53:28.811Z,22.87
2019-02-20T05:54:34.477Z,23.20
2019-02-20T05:55:33.398Z,23.50
2019-02-20T05:56:34.504Z,22.62
2019-02-20T05:57:36.489Z,25.32
2019-02-20T05:58:37.731Z,24.60
2019-02-20T05:59:38.951Z,25.27
2019-02-20T06:00:40.450Z,25.27
2019-02-20T06:01:41.889Z,23.67
2019-02-20T06:02:43.013Z,22.95
2019-02-20T06:03:44.469Z,22.70
2019-02-20T06:04:46.000Z,22.77
2019-02-20T06:05:47.130Z,23.32
2019-02-20T06:06:48.259Z,23.18
2019-02-20T06:07:49.716Z,23.60
2019-02-20T06:08:51.082Z,23.07
2019-02-20T06:09:52.189Z,22.48
2019-02-20T06:10:53.318Z,23.22
2019-02-20T06:11:54.439Z,21.85
2019-02-20T06:12:55.549Z,24.00
2019-02-20T06:13:56.721Z,22.95
2019-02-20T06:14:57.895Z,22.93
2019-02-20T06:15:59.060Z,20.23
2019-02-20T06:17:00.197Z,23.02
2019-02-20T06:18:01.652Z,21.97
2019-02-20T06:19:02.769Z,23.42
2019-02-20T06:20:06.389Z,24.05
2019-02-20T06:21:07.586Z,23.25
2019-02-20T06:22:09.056Z,23.02
2019-02-20T06:23:10.184Z,22.65
2019-02-20T06:24:11.296Z,20.27
2019-02-20T06:25:12.427Z,22.22
2019-02-20T06:26:13.644Z,23.35
2019-02-20T06:27:15.023Z,20.10
2019-02-20T06:28:16.472Z,22.00
2019-02-20T06:29:17.587Z,20.30
2019-02-20T06:30:18.705Z,19.82
2019-02-20T06:31:22.431Z,20.08
2019-02-20T06:32:24.222Z,20.52
2019-02-20T06:33:27.505Z,20.00
2019-02-20T06:34:28.637Z,20.80
2019-02-20T06:35:29.752Z,18.55
2019-02-20T06:36:30.873Z,20.17
2019-02-20T06:37:31.982Z,19.60
2019-02-20T06:38:33.099Z,20.57
2019-02-20T06:39:34.221Z,19.20
2019-02-20T06:40:35.334Z,20.27
2019-02-20T06:41:39.081Z,19.67
2019-02-20T06:42:39.918Z,19.17
2019-02-20T06:43:41.024Z,17.27
2019-02-20T06:44:42.377Z,18.45
2019-02-20T06:45:43.490Z,18.10
2019-02-20T06:46:44.615Z,19.67
2019-02-20T06:47:45.725Z,19.50
2019-02-20T06:48:46.831Z,19.30
2019-02-20T06:49:47.955Z,19.42
2019-02-20T06:50:49.433Z,19.73
2019-02-20T06:51:50.551Z,19.92
2019-02-20T06:52:52.064Z,18.73
2019-02-20T06:53:53.248Z,18.98
2019-02-20T06:54:54.638Z,19.57
2019-02-20T06:55:55.749Z,19.82
2019-02-20T06:56:56.869Z,18.80
2019-02-20T06:57:58.074Z,18.90
2019-02-20T06:58:59.184Z,18.52
2019-02-20T07:00:00.904Z,16.65
2019-02-20T07:01:02.139Z,18.45
2019-02-20T07:02:03.692Z,16.77
2019-02-20T07:03:04.805Z,16.90
2019-02-20T07:04:05.978Z,16.35
2019-02-20T07:05:29.175Z,15.90
2019-02-20T07:06:42.761Z,15.88
2019-02-20T07:07:50.374Z,15.72
2019-02-20T07:09:12.372Z,14.33
2019-02-20T07:10:38.435Z,15.38
2019-02-20T07:11:43.511Z,15.15
2019-02-20T07:12:51.278Z,15.50
2019-02-20T07:14:28.249Z,15.75
2019-02-20T07:15:36.063Z,15.63
2019-02-20T07:16:50.095Z,15.70
2019-02-20T07:18:19.009Z,17.00
2019-02-20T07:19:29.960Z,17.32
2019-02-20T07:20:43.851Z,17.12
2019-02-20T07:21:51.573Z,18.42
2019-02-20T07:22:56.494Z,19.45
2019-02-20T07:24:22.283Z,20.05
2019-02-20T07:25:27.196Z,23.32
2019-02-20T07:26:38.100Z,19.77
2019-02-20T07:30:20.794Z,19.23
2019-02-20T07:31:22.208Z,20.55
2019-02-20T07:32:23.649Z,18.80
2019-02-20T07:33:25.101Z,18.17
2019-02-20T07:34:26.528Z,17.40
2019-02-20T07:35:27.979Z,17.48
2019-02-20T07:36:29.112Z,17.30
2019-02-20T07:37:30.261Z,16.07
2019-02-20T07:38:31.377Z,15.98
2019-02-20T07:39:32.500Z,17.23
2019-02-20T07:40:33.646Z,16.40
2019-02-20T07:41:35.176Z,15.60
2019-02-20T07:42:36.289Z,14.85
2019-02-20T07:43:37.396Z,15.48
2019-02-20T07:44:38.529Z,16.10
2019-02-20T07:45:39.722Z,15.23
2019-02-20T07:46:40.853Z,15.83
2019-02-20T07:47:41.964Z,15.20
2019-02-20T07:48:43.408Z,15.50
2019-02-20T07:49:44.529Z,15.30
2019-02-20T07:50:45.642Z,16.35
2019-02-20T07:51:46.777Z,14.95
2019-02-20T07:52:47.888Z,13.93
2019-02-20T07:53:49.012Z,16.25
2019-02-20T07:54:50.123Z,15.28
2019-02-20T07:55:51.251Z,20.27
2019-02-20T07:56:52.368Z,17.67
2019-02-20T07:57:53.487Z,17.23
2019-02-20T07:58:54.606Z,17.30
2019-02-20T07:59:55.714Z,19.45
2019-02-20T08:00:56.827Z,18.20
2019-02-20T08:01:57.943Z,18.73
2019-02-20T08:02:59.073Z,17.70
2019-02-20T08:04:00.186Z,17.62
2019-02-20T08:05:01.295Z,17.95
2019-02-20T08:06:02.397Z,17.57
2019-02-20T08:07:03.520Z,16.05
2019-02-20T08:08:04.640Z,20.17
2019-02-20T08:09:05.781Z,17.50
2019-02-20T08:10:09.182Z,17.48
2019-02-20T08:11:10.297Z,17.85
2019-02-20T08:12:11.427Z,16.95
2019-02-20T08:13:12.538Z,17.48
2019-02-20T08:14:13.658Z,15.90
2019-02-20T08:15:14.848Z,15.40
2019-02-20T08:16:15.968Z,15.95
2019-02-20T08:17:17.096Z,16.02
2019-02-20T08:18:18.200Z,16.42
2019-02-20T08:19:21.665Z,16.27
2019-02-20T08:20:22.451Z,16.07
2019-02-20T08:21:23.564Z,16.23
2019-02-20T08:22:24.692Z,15.85
2019-02-20T08:23:25.803Z,16.87
2019-02-20T08:24:26.913Z,16.50
2019-02-20T08:25:28.033Z,16.00
2019-02-20T08:26:29.155Z,15.63
2019-02-20T08:27:30.281Z,15.75
2019-02-20T08:28:31.396Z,15.72
2019-02-20T08:29:32.742Z,16.12
2019-02-20T08:30:33.852Z,15.60
2019-02-20T08:31:34.966Z,16.12
2019-02-20T08:32:36.096Z,16.87
2019-02-20T08:33:37.212Z,16.00
2019-02-20T08:34:38.738Z,15.85
2019-02-20T08:35:39.850Z,16.32
2019-02-20T08:36:40.955Z,15.35
2019-02-20T08:37:42.521Z,13.80
2019-02-20T08:38:43.948Z,14.73
2019-02-20T08:39:45.115Z,14.87
2019-02-20T08:40:46.277Z,15.10
2019-02-20T08:41:47.433Z,14.63
2019-02-20T08:42:48.549Z,15.13
2019-02-20T08:43:49.661Z,15.63
2019-02-20T08:44:50.779Z,15.30
2019-02-20T08:45:51.900Z,14.58
2019-02-20T08:46:53.030Z,14.70
2019-02-20T08:47:54.231Z,14.87
2019-02-20T08:48:55.412Z,15.72
2019-02-20T08:49:56.516Z,16.12
2019-02-20T08:50:57.631Z,15.48
2019-02-20T08:51:58.745Z,14.70
2019-02-20T08:53:00.229Z,16.42
2019-02-20T08:54:01.357Z,15.13
2019-02-20T08:55:04.866Z,14.98
2019-02-20T08:56:06.005Z,15.08
2019-02-20T08:57:07.121Z,13.38
2019-02-20T08:58:08.245Z,13.60
2019-02-20T08:59:09.365Z,14.50
2019-02-20T09:00:12.364Z,13.62
2019-02-20T09:01:13.476Z,13.60
2019-02-20T09:02:14.597Z,13.10
2019-02-20T09:03:15.726Z,14.55
2019-02-20T09:04:16.874Z,13.58
2019-02-20T09:05:18.051Z,15.08
2019-02-20T09:06:19.465Z,13.88
2019-02-20T09:07:22.076Z,13.88
2019-02-20T09:08:23.214Z,13.83
2019-02-20T09:09:24.316Z,13.30
2019-02-20T09:10:25.451Z,13.53
2019-02-20T09:11:26.556Z,13.93
2019-02-20T09:12:27.698Z,14.40
2019-02-20T09:13:28.899Z,14.13
2019-02-20T09:14:29.993Z,14.70
2019-02-20T09:15:31.113Z,15.38
2019-02-20T09:16:32.226Z,14.18
2019-02-20T09:17:33.642Z,12.90
2019-02-20T09:18:35.123Z,14.58
2019-02-20T09:19:36.261Z,14.03
2019-02-20T09:20:37.370Z,12.30
2019-02-20T09:21:38.489Z,12.45
2019-02-20T09:22:39.732Z,11.30
2019-02-20T09:23:41.950Z,13.05
2019-02-20T09:24:43.162Z,11.28
2019-02-20T09:25:44.270Z,13.15
2019-02-20T09:26:45.616Z,11.93
2019-02-20T09:27:46.734Z,13.18
2019-02-20T09:28:47.849Z,12.78
2019-02-20T09:29:48.956Z,11.60
2019-02-20T09:30:50.072Z,11.75
2019-02-20T09:31:51.173Z,11.53
2019-02-20T09:32:52.284Z,11.78
2019-02-20T09:33:53.414Z,11.93
2019-02-20T09:34:54.580Z,12.13
2019-02-20T09:35:55.697Z,11.55
2019-02-20T09:36:56.809Z,12.47
2019-02-20T09:37:57.980Z,12.73
2019-02-20T09:39:19.696Z,11.80
2019-02-20T09:40:20.808Z,11.70
2019-02-20T09:41:21.931Z,10.78
2019-02-20T09:42:23.374Z,12.20
2019-02-20T09:43:24.545Z,13.25
2019-02-20T09:44:26.878Z,12.18
2019-02-20T09:45:27.989Z,12.13
2019-02-20T09:46:29.105Z,12.03
2019-02-20T09:47:30.479Z,11.30
2019-02-20T09:48:31.588Z,11.35
2019-02-20T09:49:32.722Z,12.13
2019-02-20T09:50:33.837Z,11.28
2019-02-20T09:51:34.944Z,10.85
2019-02-20T09:52:36.060Z,10.10
2019-02-20T09:53:37.283Z,11.05
2019-02-20T09:54:38.477Z,11.18
2019-02-20T09:55:39.589Z,11.15
2019-02-20T09:56:40.701Z,11.28
2019-02-20T09:57:41.812Z,10.50
2019-02-20T09:58:42.928Z,10.13
2019-02-20T09:59:44.150Z,10.58
2019-02-20T10:00:45.270Z,11.00
2019-02-20T10:01:46.380Z,10.90
2019-02-20T10:02:47.548Z,10.35
2019-02-20T10:03:48.697Z,10.63
2019-02-20T10:04:49.829Z,10.53
2019-02-20T10:05:50.941Z,11.00
2019-02-20T10:06:52.060Z,10.75
2019-02-20T10:07:53.233Z,11.08
2019-02-20T10:08:54.388Z,9.25
2019-02-20T10:09:55.810Z,10.25
2019-02-20T10:10:57.264Z,7.85
2019-02-20T10:11:58.382Z,10.20
2019-02-20T10:12:59.494Z,10.05
2019-02-20T10:14:00.610Z,9.88
2019-02-20T10:15:04.645Z,9.93
2019-02-20T10:16:05.763Z,9.85
2019-02-20T10:17:06.874Z,10.60
2019-02-20T10:18:07.990Z,9.18
2019-02-20T10:19:09.097Z,10.82
2019-02-20T10:20:10.228Z,10.30
2019-02-20T10:21:11.345Z,9.33
2019-02-20T10:22:12.467Z,10.72
2019-02-20T10:23:13.593Z,9.68
2019-02-20T10:24:14.724Z,9.28
2019-02-20T10:25:15.928Z,8.78
2019-02-20T10:26:17.042Z,9.78
2019-02-20T10:27:18.153Z,8.65
2019-02-20T10:28:19.270Z,8.83
2019-02-20T10:29:20.390Z,9.35
2019-02-20T10:30:21.518Z,9.20
2019-02-20T10:31:22.731Z,7.83
2019-02-20T10:32:23.913Z,8.93
2019-02-20T10:33:25.041Z,10.30
2019-02-20T10:34:26.153Z,10.28
2019-02-20T10:35:27.280Z,8.05
2019-02-20T10:36:28.388Z,7.62
2019-02-20T10:37:29.523Z,8.40
2019-02-20T10:38:30.638Z,8.73
2019-02-20T10:39:32.149Z,8.48
2019-02-20T10:40:33.675Z,8.08
2019-02-20T10:41:34.793Z,8.53
2019-02-20T10:42:35.924Z,8.90
2019-02-20T10:43:37.405Z,8.23
2019-02-20T10:44:38.581Z,8.38
2019-02-20T10:45:39.791Z,7.65
2019-02-20T10:46:40.900Z,8.25
2019-02-20T10:47:42.022Z,8.40
2019-02-20T10:48:43.132Z,7.80
2019-02-20T10:49:44.541Z,8.75
2019-02-20T10:50:47.692Z,8.43
2019-02-20T10:51:48.816Z,8.50
2019-02-20T10:52:49.938Z,7.95
2019-02-20T10:53:51.048Z,8.80
2019-02-20T10:54:57.712Z,7.20
2019-02-20T10:55:55.817Z,8.43
2019-02-20T10:56:56.929Z,8.18
2019-02-20T10:57:58.046Z,9.40
2019-02-20T10:58:59.256Z,9.33
2019-02-20T11:00:00.497Z,8.73
2019-02-20T11:01:01.704Z,8.10
2019-02-20T11:02:02.924Z,7.50
2019-02-20T11:03:04.036Z,8.55
2019-02-20T11:04:05.147Z,7.60
2019-02-20T11:05:06.655Z,7.78
2019-02-20T11:06:07.836Z,8.15
2019-02-20T11:07:08.952Z,8.40
2019-02-20T11:08:10.069Z,8.28
2019-02-20T11:09:11.388Z,7.83
2019-02-20T11:10:12.524Z,7.22
2019-02-20T11:11:13.639Z,7.67
2019-02-20T11:12:14.752Z,6.95
2019-02-20T11:13:15.861Z,8.18
2019-02-20T11:14:16.965Z,7.30
2019-02-20T11:15:18.131Z,7.92
2019-02-20T11:16:19.236Z,7.70
2019-02-20T11:17:20.352Z,8.10
2019-02-20T11:18:21.459Z,7.70
2019-02-20T11:19:22.572Z,8.00
2019-02-20T11:20:23.709Z,8.28
2019-02-20T11:21:24.832Z,6.50
2019-02-20T11:22:26.085Z,6.70
2019-02-20T11:23:27.323Z,6.53
2019-02-20T11:24:28.449Z,5.87
2019-02-20T11:25:31.235Z,6.22
2019-02-20T11:26:32.617Z,7.03
2019-02-20T11:27:33.751Z,7.22
2019-02-20T11:28:34.855Z,7.45
2019-02-20T11:29:35.970Z,7.25
2019-02-20T11:30:37.103Z,7.10
2019-02-20T11:31:38.555Z,5.97
2019-02-20T11:32:39.668Z,6.42
2019-02-20T11:33:40.785Z,6.62
2019-02-20T11:34:41.900Z,6.30
2019-02-20T11:35:43.033Z,7.30
2019-02-20T11:36:44.143Z,6.95
2019-02-20T11:37:45.324Z,6.67
2019-02-20T11:38:46.469Z,7.10
2019-02-20T11:39:47.580Z,6.67
2019-02-20T11:40:48.714Z,6.28
2019-02-20T11:41:49.816Z,6.58
2019-02-20T11:42:50.936Z,6.25
2019-02-20T11:43:52.087Z,6.80
2019-02-20T11:44:53.209Z,6.25
2019-02-20T11:45:54.731Z,6.92
2019-02-20T11:46:55.853Z,5.40
2019-02-20T11:47:56.975Z,6.20
2019-02-20T11:48:58.441Z,6.20
2019-02-20T11:49:59.576Z,6.58
2019-02-20T11:51:00.707Z,5.58
2019-02-20T11:52:01.821Z,6.90
2019-02-20T11:53:03.453Z,6.67
2019-02-20T11:54:04.566Z,5.50
2019-02-20T11:55:10.357Z,6.20
2019-02-20T11:56:12.308Z,6.85
2019-02-20T11:57:13.999Z,6.75
2019-02-20T11:58:15.133Z,6.35
2019-02-20T11:59:16.260Z,5.72
2019-02-20T12:00:17.672Z,5.80
2019-02-20T12:01:18.812Z,6.03
2019-02-20T12:02:19.949Z,5.53
2019-02-20T12:03:21.065Z,6.12
2019-02-20T12:04:22.174Z,5.45
2019-02-20T12:05:23.285Z,5.62
2019-02-20T12:06:24.409Z,6.00
2019-02-20T12:07:25.523Z,5.20
2019-02-20T12:08:26.640Z,5.55
2019-02-20T12:09:27.814Z,5.50
2019-02-20T12:10:28.976Z,5.08
2019-02-20T12:11:30.568Z,5.45
2019-02-20T12:12:31.747Z,5.97
2019-02-20T12:13:32.860Z,6.35
2019-02-20T12:14:33.982Z,5.87
2019-02-20T12:15:35.099Z,5.78
2019-02-20T12:16:36.214Z,5.37
2019-02-20T12:17:37.324Z,5.55
2019-02-20T12:18:38.433Z,5.90
2019-02-20T12:19:39.546Z,7.95
2019-02-20T12:20:40.658Z,8.90
2019-02-20T12:21:41.784Z,6.42
2019-02-20T12:22:42.905Z,6.72
2019-02-20T12:23:44.021Z,6.37
2019-02-20T12:24:45.140Z,6.55
2019-02-20T12:25:46.584Z,6.33
2019-02-20T12:26:47.708Z,6.50
2019-02-20T12:27:48.824Z,6.05
2019-02-20T12:28:49.923Z,6.80
2019-02-20T12:29:51.038Z,5.92
2019-02-20T12:30:52.153Z,10.58
2019-02-20T12:31:53.360Z,7.85
2019-02-20T12:32:54.462Z,6.37
2019-02-20T12:33:55.573Z,6.65
2019-02-20T12:34:56.681Z,6.67
2019-02-20T12:35:58.104Z,6.33
2019-02-20T12:36:59.231Z,6.12
2019-02-20T12:38:00.349Z,5.85
2019-02-20T12:39:01.488Z,6.30
2019-02-20T12:40:05.232Z,5.08
2019-02-20T12:41:06.425Z,5.87
2019-02-20T12:42:07.539Z,5.67
2019-02-20T12:43:08.664Z,6.78
2019-02-20T12:44:09.781Z,6.30
2019-02-20T12:45:10.891Z,6.20
2019-02-20T12:46:12.014Z,6.70
2019-02-20T12:47:13.198Z,6.17
2019-02-20T12:48:14.378Z,6.42
2019-02-20T12:49:15.484Z,5.85
2019-02-20T12:50:16.609Z,6.10
2019-02-20T12:51:17.736Z,6.22
2019-02-20T12:52:18.856Z,5.50
2019-02-20T12:53:20.060Z,6.03
2019-02-20T12:54:21.192Z,5.45
2019-02-20T12:55:22.552Z,6.33
2019-02-20T12:56:23.668Z,5.50
2019-02-20T12:57:24.890Z,5.85
2019-02-20T12:58:25.995Z,6.22
2019-02-20T12:59:27.114Z,5.37
2019-02-20T13:00:28.230Z,6.08
2019-02-20T13:01:29.612Z,6.08
2019-02-20T13:02:30.741Z,5.25
2019-02-20T13:03:32.164Z,5.62
2019-02-20T13:04:33.351Z,6.70
2019-02-20T13:05:34.514Z,6.42
2019-02-20T13:06:35.629Z,6.17
2019-02-20T13:07:36.764Z,5.70
2019-02-20T13:08:37.876Z,5.53
2019-02-20T13:09:38.989Z,4.97
2019-02-20T13:10:40.108Z,6.58
2019-02-20T13:11:41.238Z,6.80
2019-02-20T13:12:42.690Z,6.08
2019-02-20T13:13:43.805Z,5.50
2019-02-20T13:14:44.920Z,6.10
2019-02-20T13:15:46.044Z,6.55
2019-02-20T13:16:47.390Z,7.58
2019-02-20T13:17:48.512Z,5.55
2019-02-20T13:18:49.625Z,5.50
2019-02-20T13:19:51.133Z,5.97
2019-02-20T13:20:52.248Z,6.00
2019-02-20T13:21:53.385Z,5.45
2019-02-20T13:22:54.545Z,6.25
2019-02-20T13:23:55.666Z,6.22
2019-02-20T13:24:56.872Z,6.08
2019-02-20T13:25:57.992Z,6.00
2019-02-20T13:26:59.105Z,6.47
2019-02-20T13:28:00.228Z,5.42
2019-02-20T13:29:01.344Z,6.20
2019-02-20T13:30:05.566Z,5.90
2019-02-20T13:31:06.682Z,5.37
2019-02-20T13:32:07.801Z,5.60